createdAt,value
2019-05-16T00:00:49.583Z,9.97
2019-05-16T00:01:48.982Z,9.91
2019-05-16T00:02:48.974Z,9.88
2019-05-16T00:03:49.160Z,10.00
2019-05-16T00:04:48.943Z,9.99
2019-05-16T00:05:54.144Z,9.78
2019-05-16T00:06:49.919Z,9.86
2019-05-16T00:07:49.296Z,9.81
2019-05-16T00:08:48.899Z,9.96
2019-05-16T00:09:48.889Z,9.89
2019-05-16T00:10:48.874Z,9.91
2019-05-16T00:11:48.919Z,9.88
2019-05-16T00:12:48.866Z,9.86
2019-05-16T00:13:49.078Z,9.91
2019-05-16T00:14:49.089Z,9.71
2019-05-16T00:15:48.824Z,9.83
2019-05-16T00:16:48.807Z,9.76
2019-05-16T00:17:49.078Z,9.82
2019-05-16T00:18:48.786Z,9.81
2019-05-16T00:19:48.772Z,9.78
2019-05-16T00:20:49.235Z,9.81
2019-05-16T00:21:48.888Z,9.71
2019-05-16T00:22:48.750Z,9.75
2019-05-16T00:23:48.824Z,9.78
2019-05-16T00:24:48.866Z,9.68
2019-05-16T00:25:48.707Z,9.76
2019-05-16T00:26:48.725Z,9.75
2019-05-16T00:27:48.691Z,9.70
2019-05-16T00:28:48.724Z,9.70
2019-05-16T00:29:48.874Z,9.81
2019-05-16T00:30:48.856Z,9.71
2019-05-16T00:31:48.761Z,9.75
2019-05-16T00:32:48.635Z,9.73
2019-05-16T00:33:48.878Z,9.70
2019-05-16T00:34:48.602Z,9.67
2019-05-16T00:36:01.064Z,9.64
2019-05-16T00:36:49.582Z,9.67
2019-05-16T00:37:48.670Z,9.71
2019-05-16T00:38:48.691Z,9.64
2019-05-16T00:39:48.552Z,9.66
2019-05-16T00:40:48.794Z,9.73
2019-05-16T00:41:48.523Z,9.71
2019-05-16T00:42:49.312Z,9.66
2019-05-16T00:43:48.772Z,9.60
2019-05-16T00:44:48.489Z,9.71
2019-05-16T00:45:48.769Z,9.76
2019-05-16T00:46:48.687Z,9.71
2019-05-16T00:47:48.464Z,9.73
2019-05-16T00:48:48.756Z,9.71
2019-05-16T00:49:48.433Z,9.67
2019-05-16T00:50:48.423Z,9.73
2019-05-16T00:51:48.414Z,9.64
2019-05-16T00:52:48.917Z,9.73
2019-05-16T00:53:48.497Z,9.71
2019-05-16T00:54:48.692Z,9.70
2019-05-16T00:55:48.364Z,9.68
2019-05-16T00:56:48.773Z,9.64
2019-05-16T00:57:48.392Z,9.67
2019-05-16T00:58:48.535Z,9.68
2019-05-16T00:59:48.593Z,9.58
2019-05-16T01:00:49.943Z,9.67
2019-05-16T01:01:50.032Z,9.57
2019-05-16T01:02:48.686Z,9.60
2019-05-16T01:03:48.495Z,9.61
2019-05-16T01:04:48.733Z,9.61
2019-05-16T01:05:48.287Z,9.50
2019-05-16T01:06:48.501Z,9.56
2019-05-16T01:07:48.270Z,9.68
2019-05-16T01:08:48.910Z,9.58
2019-05-16T01:09:48.787Z,9.60
2019-05-16T01:10:51.344Z,9.56
2019-05-16T01:11:48.623Z,9.53
2019-05-16T01:12:48.217Z,9.61
2019-05-16T01:13:48.723Z,9.58
2019-05-16T01:14:48.149Z,9.57
2019-05-16T01:15:48.575Z,9.56
2019-05-16T01:16:48.792Z,9.57
2019-05-16T01:17:48.484Z,9.52
2019-05-16T01:18:48.755Z,9.53
2019-05-16T01:19:48.511Z,9.52
2019-05-16T01:20:48.361Z,9.50
2019-05-16T01:21:48.426Z,9.50
2019-05-16T01:22:49.000Z,9.50
2019-05-16T01:23:48.316Z,9.52
2019-05-16T01:24:49.242Z,9.46
2019-05-16T01:25:48.566Z,9.50
2019-05-16T01:26:48.460Z,9.46
2019-05-16T01:27:48.000Z,9.49
2019-05-16T01:28:48.488Z,9.48
2019-05-16T01:29:47.978Z,9.50
2019-05-16T01:30:48.788Z,9.52
2019-05-16T01:31:48.360Z,9.49
2019-05-16T01:32:49.203Z,9.57
2019-05-16T01:33:47.955Z,9.50
2019-05-16T01:34:48.382Z,9.57
2019-05-16T01:35:47.911Z,9.56
2019-05-16T01:36:48.594Z,9.52
2019-05-16T01:37:48.748Z,9.50
2019-05-16T01:38:48.206Z,9.50
2019-05-16T01:39:48.389Z,9.66
2019-05-16T01:40:49.091Z,9.56
2019-05-16T01:41:48.137Z,9.49
2019-05-16T01:42:48.955Z,9.57
2019-05-16T01:43:48.372Z,9.56
2019-05-16T01:44:48.680Z,9.60
2019-05-16T01:45:48.646Z,9.64
2019-05-16T01:46:48.133Z,9.67
2019-05-16T01:47:48.341Z,9.67
2019-05-16T01:48:48.501Z,9.67
2019-05-16T01:49:48.729Z,9.64
2019-05-16T01:50:48.229Z,9.67
2019-05-16T01:51:48.429Z,9.68
2019-05-16T01:52:48.766Z,9.66
2019-05-16T01:53:48.793Z,9.60
2019-05-16T01:54:48.178Z,9.71
2019-05-16T01:55:48.809Z,9.70
2019-05-16T01:56:48.087Z,9.71
2019-05-16T01:57:48.206Z,9.61
2019-05-16T01:58:49.041Z,9.71
2019-05-16T01:59:48.571Z,9.73
2019-05-16T02:00:58.131Z,9.70
2019-05-16T02:01:48.615Z,9.75
2019-05-16T02:02:48.745Z,9.71
2019-05-16T02:03:48.167Z,9.68
2019-05-16T02:04:48.537Z,9.76
2019-05-16T02:05:48.104Z,9.83
2019-05-16T02:06:53.722Z,9.82
2019-05-16T02:07:48.559Z,9.82
2019-05-16T02:08:48.671Z,9.76
2019-05-16T02:09:47.758Z,9.73
2019-05-16T02:10:48.062Z,9.83
2019-05-16T02:11:48.124Z,9.85
2019-05-16T02:12:49.007Z,9.83
2019-05-16T02:13:48.528Z,9.85
2019-05-16T02:14:48.114Z,9.86
2019-05-16T02:15:48.853Z,9.86
2019-05-16T02:16:47.793Z,9.88
2019-05-16T06:24:30.538Z,13.65
2019-05-16T06:25:31.465Z,13.65
2019-05-16T06:26:30.371Z,13.63
2019-05-16T06:27:30.364Z,13.69
2019-05-16T06:28:30.759Z,13.67
2019-05-16T06:29:30.982Z,13.59
2019-05-16T06:30:30.578Z,13.70
2019-05-16T06:31:31.332Z,13.63
2019-05-16T06:32:30.434Z,13.71
2019-05-16T06:33:30.545Z,13.62
2019-05-16T06:34:30.295Z,13.70
2019-05-16T06:35:30.063Z,13.56
2019-05-16T06:36:30.578Z,13.58
2019-05-16T06:37:30.926Z,13.59
2019-05-16T06:38:30.107Z,13.54
2019-05-16T06:39:41.277Z,13.61
2019-05-16T06:40:30.788Z,13.49
2019-05-16T06:41:30.448Z,13.56
2019-05-16T06:42:30.090Z,13.51
2019-05-16T06:43:30.232Z,13.44
2019-05-16T06:44:30.847Z,13.37
2019-05-16T06:45:31.982Z,13.36
2019-05-16T06:46:30.692Z,13.37
2019-05-16T06:47:30.520Z,13.20
2019-05-16T06:48:30.340Z,13.12
2019-05-16T06:49:30.371Z,13.07
2019-05-16T06:50:29.841Z,13.03
2019-05-16T06:51:30.586Z,13.06
2019-05-16T06:52:30.155Z,12.99
2019-05-16T06:53:29.989Z,12.93
2019-05-16T06:54:29.983Z,12.81
2019-05-16T06:55:29.719Z,12.84
2019-05-16T06:56:30.884Z,12.87
2019-05-16T06:57:30.212Z,12.85
2019-05-16T06:58:30.272Z,12.85
2019-05-16T06:59:29.810Z,12.93
2019-05-16T07:00:30.232Z,12.77
2019-05-16T07:01:29.808Z,12.84
2019-05-16T07:02:33.670Z,12.85
2019-05-16T07:03:30.851Z,12.74
2019-05-16T07:04:30.514Z,12.74
2019-05-16T07:05:29.990Z,12.71
2019-05-16T07:06:48.499Z,12.79
2019-05-16T07:07:30.847Z,12.82
2019-05-16T07:08:30.983Z,12.81
2019-05-16T07:09:30.127Z,12.79
2019-05-16T07:10:30.639Z,12.96
2019-05-16T07:11:30.653Z,13.14
2019-05-16T07:12:33.379Z,13.20
2019-05-16T07:13:30.454Z,13.36
2019-05-16T07:14:31.312Z,13.52
2019-05-16T07:15:29.837Z,13.70
2019-05-16T07:16:29.990Z,13.81
2019-05-16T07:17:30.659Z,13.81
2019-05-16T07:18:30.943Z,13.81
2019-05-16T07:19:30.176Z,14.01
2019-05-16T07:20:30.161Z,14.07
2019-05-16T07:21:31.251Z,14.20
2019-05-16T07:22:31.232Z,14.29
2019-05-16T07:23:29.863Z,14.39
2019-05-16T07:24:30.536Z,14.44
2019-05-16T07:25:30.083Z,14.49
2019-05-16T07:26:30.971Z,14.50
2019-05-16T07:27:30.921Z,14.56
2019-05-16T07:28:30.055Z,14.49
2019-05-16T07:29:30.853Z,14.54
2019-05-16T07:30:30.297Z,14.57
2019-05-16T07:31:30.051Z,14.62
2019-05-16T07:32:30.255Z,14.60
2019-05-16T07:33:31.163Z,14.60
2019-05-16T07:34:31.191Z,14.50
2019-05-16T07:35:30.781Z,14.57
2019-05-16T07:36:31.338Z,14.54
2019-05-16T07:37:31.448Z,14.49
2019-05-16T07:38:30.966Z,14.54
2019-05-16T07:39:30.740Z,14.42
2019-05-16T07:40:30.852Z,14.54
2019-05-16T07:41:31.079Z,14.60
2019-05-16T07:42:30.774Z,14.65
2019-05-16T07:43:30.852Z,14.57
2019-05-16T07:44:31.054Z,14.53
2019-05-16T07:45:30.880Z,14.54
2019-05-16T07:46:31.349Z,14.42
2019-05-16T07:47:30.967Z,14.54
2019-05-16T07:48:31.598Z,14.49
2019-05-16T07:49:30.466Z,14.54
2019-05-16T07:50:30.023Z,14.53
2019-05-16T07:51:31.064Z,14.53
2019-05-16T07:52:35.496Z,14.65
2019-05-16T07:53:32.967Z,14.65
2019-05-16T07:54:34.034Z,14.74
2019-05-16T07:55:30.856Z,14.74
2019-05-16T07:56:31.029Z,14.72
2019-05-16T07:57:30.643Z,14.68
2019-05-16T07:58:31.327Z,14.78
2019-05-16T07:59:29.935Z,14.67
2019-05-16T08:00:48.468Z,14.74
2019-05-16T08:01:30.654Z,14.61
2019-05-16T08:02:31.129Z,14.52
2019-05-16T08:03:30.339Z,14.60
2019-05-16T08:04:30.361Z,14.53
2019-05-16T08:05:29.910Z,14.37
2019-05-16T08:06:31.091Z,14.46
2019-05-16T08:07:33.176Z,14.34
2019-05-16T08:08:31.474Z,14.37
2019-05-16T08:09:30.625Z,14.31
2019-05-16T08:10:38.096Z,14.28
2019-05-16T08:11:30.413Z,14.27
2019-05-16T08:12:32.819Z,14.42
2019-05-16T08:13:30.858Z,14.31
2019-05-16T08:14:30.432Z,14.49
2019-05-16T08:15:30.414Z,14.60
2019-05-16T08:16:30.627Z,14.64
2019-05-16T08:17:31.294Z,14.78
2019-05-16T08:18:30.259Z,14.84
2019-05-16T08:19:30.561Z,14.91
2019-05-16T08:20:31.239Z,15.02
2019-05-16T08:21:30.847Z,15.05
2019-05-16T08:22:30.628Z,15.13
2019-05-16T08:23:30.553Z,15.19
2019-05-16T08:24:30.968Z,15.19
2019-05-16T08:25:31.230Z,15.27
2019-05-16T08:26:32.368Z,15.19
2019-05-16T08:28:30.850Z,15.23
2019-05-16T08:29:31.616Z,15.17
2019-05-16T08:30:31.609Z,15.09
2019-05-16T08:31:31.702Z,15.23
2019-05-16T08:32:31.243Z,15.24
2019-05-16T08:33:31.198Z,15.26
2019-05-16T08:34:31.966Z,15.28
2019-05-16T08:35:31.453Z,15.54
2019-05-16T08:36:30.729Z,15.52
2019-05-16T08:37:41.351Z,15.48
2019-05-16T08:38:30.892Z,15.48
2019-05-16T08:39:31.042Z,15.51
2019-05-16T08:40:31.339Z,15.56
2019-05-16T08:41:31.273Z,15.52
2019-05-16T08:42:32.143Z,15.35
2019-05-16T08:43:31.298Z,15.39
2019-05-16T08:44:31.664Z,15.31
2019-05-16T08:45:31.361Z,15.28
2019-05-16T08:46:31.923Z,15.13
2019-05-16T08:47:31.860Z,15.12
2019-05-16T08:48:31.438Z,14.99
2019-05-16T08:49:30.702Z,14.98
2019-05-16T08:50:10.797Z,15.21
2019-05-16T08:50:28.335Z,14.90
2019-05-16T08:51:32.805Z,14.88
2019-05-16T08:52:31.504Z,14.81
2019-05-16T08:53:31.411Z,14.67
2019-05-16T08:54:31.644Z,14.62
2019-05-16T08:55:31.164Z,14.54
2019-05-16T08:56:31.463Z,14.38
2019-05-16T08:57:32.529Z,14.43
2019-05-16T08:58:34.363Z,14.27
2019-05-16T08:59:33.577Z,14.35
2019-05-16T09:00:33.117Z,14.25
2019-05-16T09:01:34.477Z,14.29
2019-05-16T09:02:36.279Z,14.25
2019-05-16T09:03:32.068Z,14.17
2019-05-16T09:04:33.319Z,14.13
2019-05-16T09:05:31.467Z,14.14
2019-05-16T09:06:31.662Z,14.02
2019-05-16T09:07:31.598Z,14.04
2019-05-16T09:08:28.144Z,13.96
2019-05-16T09:09:41.663Z,13.84
2019-05-16T09:10:55.757Z,13.88
2019-05-16T09:11:39.131Z,13.71
2019-05-16T09:12:29.092Z,13.77
2019-05-16T09:13:28.100Z,13.71
2019-05-16T09:14:31.885Z,13.73
2019-05-16T09:15:29.055Z,13.83
2019-05-16T09:16:28.058Z,13.79
2019-05-16T09:17:28.044Z,13.79
2019-05-16T09:18:28.980Z,13.74
2019-05-16T09:19:28.011Z,13.81
2019-05-16T09:20:28.262Z,13.77
2019-05-16T09:21:27.997Z,13.84
2019-05-16T09:22:28.359Z,13.84
2019-05-16T09:23:27.971Z,13.95
2019-05-16T09:24:27.981Z,13.96
2019-05-16T09:25:27.948Z,13.91
2019-05-16T09:26:28.028Z,13.96
2019-05-16T09:27:27.927Z,14.04
2019-05-16T09:28:28.466Z,14.02
2019-05-16T09:29:27.899Z,13.98
2019-05-16T09:30:27.921Z,14.09
2019-05-16T09:31:27.881Z,14.14
2019-05-16T09:32:28.154Z,14.09
2019-05-16T09:33:27.861Z,14.17
2019-05-16T09:34:28.444Z,14.25
2019-05-16T09:35:28.146Z,14.25
2019-05-16T09:36:28.297Z,14.29
2019-05-16T09:37:27.818Z,14.29
2019-05-16T09:38:30.381Z,14.37
2019-05-16T09:39:28.105Z,14.50
2019-05-16T09:40:27.989Z,14.50
2019-05-16T09:41:46.270Z,14.57
2019-05-16T09:42:28.766Z,14.65
2019-05-16T09:43:28.287Z,14.62
2019-05-16T09:44:27.734Z,14.72
2019-05-16T09:45:27.721Z,14.87
2019-05-16T09:46:27.731Z,14.94
2019-05-16T09:47:28.392Z,14.99
2019-05-16T09:48:30.538Z,14.88
2019-05-16T09:49:29.306Z,15.06
2019-05-16T09:50:27.664Z,15.08
2019-05-16T09:51:27.654Z,14.99
2019-05-16T09:52:27.650Z,15.05
2019-05-16T09:53:27.978Z,15.17
2019-05-16T09:54:27.618Z,15.05
2019-05-16T09:55:27.607Z,15.12
2019-05-16T09:56:27.594Z,15.13
2019-05-16T09:57:27.940Z,15.09
2019-05-16T09:58:28.096Z,15.24
2019-05-16T09:59:27.567Z,15.20
2019-05-16T10:00:27.549Z,15.31
2019-05-16T10:01:27.774Z,15.41
2019-05-16T10:02:27.615Z,15.45
2019-05-16T10:03:27.520Z,15.49
2019-05-16T10:04:27.506Z,15.63
2019-05-16T10:05:27.506Z,15.79
2019-05-16T10:06:27.744Z,16.00
2019-05-16T10:07:28.464Z,16.16
2019-05-16T10:08:27.465Z,16.22
2019-05-16T10:09:41.162Z,16.49
2019-05-16T10:10:28.441Z,16.68
2019-05-16T10:11:31.005Z,16.78
2019-05-16T10:12:27.425Z,16.95
2019-05-16T10:13:27.994Z,17.06
2019-05-16T10:14:27.428Z,17.28
2019-05-16T10:15:27.389Z,17.36
2019-05-16T10:16:27.639Z,17.48
2019-05-16T10:17:27.456Z,17.66
2019-05-16T10:18:27.959Z,17.73
2019-05-16T10:19:27.687Z,17.79
2019-05-16T10:20:27.547Z,17.89
2019-05-16T10:21:27.380Z,18.02
2019-05-16T10:22:27.406Z,18.36
2019-05-16T10:23:28.433Z,18.58
2019-05-16T10:24:27.286Z,18.68
2019-05-16T10:25:27.878Z,18.74
2019-05-16T10:26:27.933Z,18.84
2019-05-16T10:27:27.290Z,18.84
2019-05-16T10:28:27.814Z,18.73
2019-05-16T10:29:27.623Z,18.82
2019-05-16T10:30:27.220Z,18.94
2019-05-16T10:31:41.607Z,18.98
2019-05-16T10:32:28.218Z,19.29
2019-05-16T10:33:27.726Z,19.68
2019-05-16T10:34:27.175Z,19.83
2019-05-16T10:35:29.970Z,19.88
2019-05-16T10:36:28.183Z,20.10
2019-05-16T10:37:27.168Z,20.43
2019-05-16T10:38:28.544Z,20.54
2019-05-16T10:39:27.125Z,20.61
2019-05-16T10:40:27.500Z,20.84
2019-05-16T10:41:27.105Z,20.81
2019-05-16T10:42:28.937Z,20.79
2019-05-16T10:43:27.087Z,20.93
2019-05-16T10:44:28.052Z,20.81
2019-05-16T10:45:27.376Z,20.69
2019-05-16T10:46:27.180Z,20.66
2019-05-16T10:47:31.009Z,20.80
2019-05-16T10:48:27.237Z,20.64
2019-05-16T10:49:36.942Z,20.53
2019-05-16T10:50:28.085Z,20.68
2019-05-16T10:51:27.146Z,20.65
2019-05-16T10:52:27.176Z,20.50
2019-05-16T10:53:57.107Z,20.51
2019-05-16T10:54:28.097Z,20.66
2019-05-16T10:55:27.761Z,20.80
2019-05-16T10:56:26.938Z,20.77
2019-05-16T10:57:29.639Z,21.02
2019-05-16T10:58:36.414Z,21.27
2019-05-16T11:00:57.606Z,21.88
2019-05-16T11:01:31.045Z,22.06
2019-05-16T11:02:27.566Z,21.94
2019-05-16T11:03:27.633Z,21.91
2019-05-16T11:04:37.625Z,22.25
2019-05-16T11:05:33.711Z,22.23
2019-05-16T11:06:29.286Z,22.09
2019-05-16T11:07:29.610Z,22.17
2019-05-16T11:08:26.824Z,22.06
2019-05-16T11:09:26.802Z,22.01
2019-05-16T11:10:29.564Z,21.85
2019-05-16T11:11:27.489Z,22.01
2019-05-16T11:12:45.321Z,22.06
2019-05-16T11:13:28.207Z,22.17
2019-05-16T11:14:28.102Z,22.34
2019-05-16T11:15:27.822Z,22.39
2019-05-16T11:16:27.442Z,22.49
2019-05-16T11:17:27.874Z,22.74
2019-05-16T11:18:27.338Z,22.99
2019-05-16T11:19:28.234Z,23.27
2019-05-16T11:20:27.075Z,23.57
2019-05-16T11:21:26.987Z,23.50
2019-05-16T11:22:29.535Z,23.07
2019-05-16T11:23:30.941Z,23.08
2019-05-16T11:24:29.012Z,23.05
2019-05-16T11:25:31.815Z,23.17
2019-05-16T11:26:30.247Z,23.27
2019-05-16T11:27:26.617Z,23.26
2019-05-16T11:28:26.651Z,23.55
2019-05-16T11:29:26.596Z,23.83
2019-05-16T11:30:28.089Z,24.08
2019-05-16T11:31:26.881Z,24.22
2019-05-16T11:32:27.068Z,24.54
2019-05-16T11:33:28.190Z,24.71
2019-05-16T11:34:26.783Z,24.92
2019-05-16T11:35:27.292Z,25.10
2019-05-16T11:36:26.878Z,25.39
2019-05-16T11:37:27.907Z,25.67
2019-05-16T11:38:26.513Z,25.83
2019-05-16T11:39:26.493Z,25.98
2019-05-16T11:40:26.485Z,26.04
2019-05-16T11:41:27.534Z,26.12
2019-05-16T11:42:27.986Z,26.11
2019-05-16T11:43:27.835Z,26.28
2019-05-16T11:44:28.721Z,26.32
2019-05-16T11:45:27.183Z,26.44
2019-05-16T11:46:28.213Z,26.49
2019-05-16T11:47:27.223Z,26.47
2019-05-16T11:48:29.516Z,26.49
2019-05-16T11:49:27.544Z,26.42
2019-05-16T11:50:28.028Z,26.49
2019-05-16T11:51:27.182Z,26.54
2019-05-16T11:52:26.378Z,26.49
2019-05-16T11:53:28.180Z,26.49
2019-05-16T11:54:26.669Z,26.58
2019-05-16T11:55:33.785Z,26.79
2019-05-16T11:56:27.334Z,26.95
2019-05-16T11:57:26.325Z,26.96
2019-05-16T11:58:26.698Z,26.81
2019-05-16T11:59:26.315Z,26.81
2019-05-16T12:00:30.115Z,26.92
2019-05-16T12:01:27.620Z,26.81
2019-05-16T12:02:27.875Z,26.44
2019-05-16T12:03:28.154Z,26.15
2019-05-16T12:04:28.069Z,26.24
2019-05-16T12:05:27.103Z,26.31
2019-05-16T12:06:26.798Z,26.37
2019-05-16T12:07:33.405Z,26.44
2019-05-16T12:08:27.214Z,26.52
2019-05-16T12:09:33.365Z,26.65
2019-05-16T12:10:27.203Z,26.52
2019-05-16T12:11:27.495Z,26.55
2019-05-16T12:12:27.150Z,26.50
2019-05-16T12:13:31.779Z,26.50
2019-05-16T12:14:27.317Z,26.65
2019-05-16T12:15:27.337Z,26.72
2019-05-16T12:16:27.531Z,26.73
2019-05-16T12:17:28.021Z,26.68
2019-05-16T12:18:26.543Z,26.72
2019-05-16T12:19:34.731Z,26.76
2019-05-16T12:20:27.492Z,26.67
2019-05-16T12:21:27.481Z,26.58
2019-05-16T12:22:26.827Z,26.52
2019-05-16T12:23:27.609Z,26.20
2019-05-16T12:24:33.144Z,26.08
2019-05-16T12:25:27.432Z,25.84
2019-05-16T12:26:28.144Z,25.61
2019-05-16T12:27:32.783Z,25.30
2019-05-16T12:28:27.214Z,25.12
2019-05-16T12:29:28.092Z,25.19
2019-05-16T12:30:25.998Z,25.39
2019-05-16T12:31:25.987Z,25.50
2019-05-16T12:32:27.651Z,25.59
2019-05-16T12:33:27.446Z,25.61
2019-05-16T12:34:25.967Z,25.67
2019-05-16T12:35:27.725Z,25.68
2019-05-16T12:36:26.796Z,25.61
2019-05-16T12:37:27.606Z,25.75
2019-05-16T12:38:27.639Z,25.71
2019-05-16T12:39:26.851Z,25.69
2019-05-16T12:40:26.847Z,25.64
2019-05-16T12:41:28.520Z,25.65
2019-05-16T12:42:27.086Z,25.52
2019-05-16T12:43:44.147Z,25.17
2019-05-16T12:44:27.028Z,24.95
2019-05-16T12:45:27.543Z,24.64
2019-05-16T12:46:27.178Z,24.38
2019-05-16T12:47:25.826Z,24.01
2019-05-16T12:48:25.833Z,23.87
2019-05-16T12:49:25.820Z,23.77
2019-05-16T12:50:28.734Z,23.60
2019-05-16T12:51:26.439Z,23.32
2019-05-16T12:52:27.070Z,23.26
2019-05-16T12:53:31.682Z,23.31
2019-05-16T12:54:27.566Z,23.15
2019-05-16T12:55:27.121Z,23.11
2019-05-16T12:56:27.218Z,23.12
2019-05-16T12:57:27.709Z,23.05
2019-05-16T12:58:37.534Z,22.96
2019-05-16T12:59:26.836Z,22.82
2019-05-16T13:00:27.622Z,22.78
2019-05-16T13:01:30.480Z,22.80
2019-05-16T13:02:27.329Z,22.68
2019-05-16T13:03:27.751Z,22.62
2019-05-16T13:04:27.924Z,22.47
2019-05-16T13:05:26.963Z,22.38
2019-05-16T13:06:27.767Z,22.37
2019-05-16T13:07:26.938Z,22.28
2019-05-16T13:08:26.806Z,22.14
2019-05-16T13:09:26.525Z,21.91
2019-05-16T13:10:26.981Z,21.92
2019-05-16T13:11:27.009Z,21.91
2019-05-16T13:12:27.070Z,21.91
2019-05-16T13:13:27.766Z,21.76
2019-05-16T13:14:27.950Z,21.81
2019-05-16T13:15:27.331Z,21.85
2019-05-16T13:16:28.075Z,21.95
2019-05-16T13:17:27.497Z,21.82
2019-05-16T13:18:27.561Z,21.88
2019-05-16T13:19:31.896Z,21.69
2019-05-16T13:20:26.795Z,21.69
2019-05-16T13:21:27.616Z,21.66
2019-05-16T13:22:27.573Z,21.59
2019-05-16T13:23:26.924Z,21.48
2019-05-16T13:24:27.834Z,21.38
2019-05-16T13:25:27.300Z,21.34
2019-05-16T13:26:25.413Z,21.38
2019-05-16T13:27:25.412Z,21.41
2019-05-16T13:28:25.387Z,21.48
2019-05-16T13:29:27.464Z,21.60
2019-05-16T13:30:26.852Z,21.74
2019-05-16T13:31:28.589Z,21.98
2019-05-16T13:32:27.070Z,22.01
2019-05-16T13:33:27.129Z,22.10
2019-05-16T13:34:28.077Z,22.57
2019-05-16T13:35:27.050Z,23.01
2019-05-16T13:36:27.196Z,23.09
2019-05-16T13:37:27.640Z,23.22
2019-05-16T13:38:27.902Z,23.09
2019-05-16T13:39:27.504Z,23.07
2019-05-16T13:40:27.480Z,23.11
2019-05-16T13:41:27.056Z,23.29
2019-05-16T13:42:27.200Z,23.50
2019-05-16T13:43:26.997Z,23.52
2019-05-16T13:44:27.482Z,23.65
2019-05-16T13:45:27.185Z,23.68
2019-05-16T13:46:26.544Z,23.72
2019-05-16T13:47:26.867Z,23.82
2019-05-16T13:48:26.769Z,24.07
2019-05-16T13:49:26.821Z,24.17
2019-05-16T13:50:27.308Z,24.53
2019-05-16T13:51:26.644Z,24.90
2019-05-16T13:52:28.090Z,25.22
2019-05-16T13:53:27.154Z,25.39
2019-05-16T13:54:26.951Z,25.50
2019-05-16T13:55:27.146Z,25.44
2019-05-16T13:56:27.313Z,25.31
2019-05-16T13:57:28.036Z,25.06
2019-05-16T13:58:28.103Z,24.85
2019-05-16T13:59:27.839Z,24.79
2019-05-16T14:00:27.754Z,24.45
2019-05-16T14:01:27.627Z,24.22
2019-05-16T14:02:26.681Z,23.94
2019-05-16T14:03:27.516Z,23.83
2019-05-16T14:04:26.418Z,23.72
2019-05-16T14:05:26.768Z,23.43
2019-05-16T14:06:24.978Z,23.22
2019-05-16T14:07:24.970Z,23.05
2019-05-16T14:08:26.816Z,22.89
2019-05-16T14:09:26.834Z,22.64
2019-05-16T14:10:29.288Z,22.44
2019-05-16T14:11:24.924Z,22.23
2019-05-16T14:12:26.786Z,22.13
2019-05-16T14:13:24.914Z,21.99
2019-05-16T14:14:34.779Z,21.97
2019-05-16T14:15:27.034Z,21.99
2019-05-16T14:16:26.921Z,21.79
2019-05-16T14:17:27.323Z,21.39
2019-05-16T14:18:27.183Z,21.29
2019-05-16T14:19:27.322Z,21.20
2019-05-16T14:20:24.828Z,21.13
2019-05-16T14:21:24.842Z,21.01
2019-05-16T14:22:27.605Z,20.96
2019-05-16T14:23:28.091Z,20.77
2019-05-16T14:24:27.934Z,20.66
2019-05-16T14:25:24.790Z,20.47
2019-05-16T14:26:24.879Z,20.50
2019-05-16T14:27:26.883Z,20.50
2019-05-16T14:28:25.710Z,20.47
2019-05-16T14:29:24.729Z,20.53
2019-05-16T14:30:24.765Z,20.61
2019-05-16T14:31:24.730Z,20.66
2019-05-16T14:32:24.706Z,20.33
2019-05-16T14:33:24.687Z,20.31
2019-05-16T14:34:27.659Z,20.16
2019-05-16T14:35:26.676Z,20.10
2019-05-16T14:36:27.808Z,19.87
2019-05-16T14:37:26.779Z,19.93
2019-05-16T14:38:26.964Z,19.78
2019-05-16T14:39:28.078Z,19.72
2019-05-16T14:40:24.608Z,19.61
2019-05-16T14:41:24.638Z,19.42
2019-05-16T14:42:27.814Z,19.36
2019-05-16T14:43:27.024Z,19.38
2019-05-16T14:44:24.566Z,19.13
2019-05-16T14:45:26.377Z,18.98
2019-05-16T14:46:27.185Z,18.91
2019-05-16T14:47:26.975Z,18.80
2019-05-16T14:48:24.564Z,18.74
2019-05-16T14:49:24.513Z,18.58
2019-05-16T14:50:27.321Z,18.64
2019-05-16T14:51:27.283Z,18.59
2019-05-16T14:52:26.990Z,18.39
2019-05-16T14:53:28.197Z,18.42
2019-05-16T14:54:26.758Z,18.37
2019-05-16T14:55:27.262Z,18.37
2019-05-16T14:56:26.829Z,18.37
2019-05-16T14:57:24.444Z,18.27
2019-05-16T14:58:24.418Z,18.25
2019-05-16T14:59:26.848Z,18.06
2019-05-16T15:00:27.384Z,17.97
2019-05-16T15:01:26.606Z,17.92
2019-05-16T15:02:27.300Z,17.89
2019-05-16T15:03:27.128Z,17.79
2019-05-16T15:04:29.833Z,17.69
2019-05-16T15:05:25.406Z,17.69
2019-05-16T15:06:24.332Z,17.71
2019-05-16T15:07:24.319Z,17.64
2019-05-16T15:08:24.301Z,17.66
2019-05-16T15:09:24.289Z,17.70
2019-05-16T15:10:24.278Z,17.69
2019-05-16T15:11:24.311Z,17.74
2019-05-16T15:12:26.651Z,17.59
2019-05-16T15:13:24.245Z,17.59
2019-05-16T15:14:24.233Z,17.57
2019-05-16T15:15:27.793Z,17.59
2019-05-16T15:16:24.219Z,17.55
2019-05-16T15:17:24.198Z,17.51
2019-05-16T15:18:24.198Z,17.48
2019-05-16T15:19:24.179Z,17.38
2019-05-16T15:20:27.606Z,17.35
2019-05-16T15:21:24.164Z,17.28
2019-05-16T15:22:24.149Z,17.14
2019-05-16T15:23:24.141Z,17.14
2019-05-16T15:24:26.669Z,17.10
2019-05-16T15:25:26.433Z,16.92
2019-05-16T15:26:24.139Z,16.90
2019-05-16T15:27:26.242Z,16.83
2019-05-16T15:28:29.486Z,16.80
2019-05-16T15:29:27.005Z,16.78
2019-05-16T15:30:24.055Z,16.73
2019-05-16T15:31:24.044Z,16.63
2019-05-16T15:32:24.041Z,16.63
2019-05-16T15:33:24.020Z,16.50
2019-05-16T15:34:24.038Z,16.49
2019-05-16T15:35:24.001Z,16.65
2019-05-16T15:36:23.994Z,16.56
2019-05-16T15:37:23.997Z,16.59
2019-05-16T15:38:23.962Z,16.60
2019-05-16T15:39:23.962Z,16.65
2019-05-16T15:40:23.962Z,16.49
2019-05-16T15:41:23.933Z,16.42
2019-05-16T15:42:23.950Z,16.37
2019-05-16T15:43:23.908Z,16.27
2019-05-16T15:44:23.897Z,16.37
2019-05-16T15:45:35.673Z,16.40
2019-05-16T15:46:26.577Z,16.37
2019-05-16T15:47:23.883Z,16.42
2019-05-16T15:48:23.851Z,16.35
2019-05-16T15:49:26.408Z,16.38
2019-05-16T15:50:23.834Z,16.20
2019-05-16T15:51:23.819Z,16.20
2019-05-16T15:52:23.844Z,16.20
2019-05-16T15:53:23.813Z,16.12
2019-05-16T15:54:23.789Z,16.09
2019-05-16T15:55:23.777Z,15.99
2019-05-16T15:56:23.771Z,15.84
2019-05-16T15:57:23.769Z,15.75
2019-05-16T15:58:23.743Z,15.76
2019-05-16T15:59:23.735Z,15.68
2019-05-16T16:00:23.733Z,15.70
2019-05-16T16:01:23.711Z,15.60
2019-05-16T16:02:23.709Z,15.67
2019-05-16T16:03:23.713Z,15.51
2019-05-16T16:04:23.679Z,15.48
2019-05-16T16:05:23.670Z,15.38
2019-05-16T16:06:23.655Z,15.36
2019-05-16T16:07:23.677Z,15.46
2019-05-16T16:08:23.633Z,15.48
2019-05-16T16:09:23.620Z,15.48
2019-05-16T16:10:23.622Z,15.49
2019-05-16T16:11:23.602Z,15.48
2019-05-16T16:12:23.623Z,15.51
2019-05-16T16:13:23.593Z,15.45
2019-05-16T16:14:23.566Z,15.28
2019-05-16T16:15:23.555Z,15.26
2019-05-16T16:16:23.544Z,15.30
2019-05-16T16:17:23.545Z,15.20
2019-05-16T16:18:23.526Z,15.20
2019-05-16T16:19:23.536Z,15.15
2019-05-16T16:20:23.528Z,15.15
2019-05-16T16:21:23.492Z,15.13
2019-05-16T16:22:23.493Z,15.03
2019-05-16T16:23:23.482Z,15.01
2019-05-16T16:24:23.456Z,15.11
2019-05-16T16:25:23.462Z,15.01
2019-05-16T16:26:23.456Z,14.91
2019-05-16T16:27:23.434Z,14.99
2019-05-16T16:28:23.407Z,15.03
2019-05-16T16:29:23.399Z,14.93
2019-05-16T16:30:23.435Z,15.05
2019-05-16T16:31:23.376Z,15.08
2019-05-16T16:32:23.364Z,15.06
2019-05-16T16:33:29.052Z,15.13
2019-05-16T16:34:26.644Z,15.15
2019-05-16T16:35:23.330Z,15.02
2019-05-16T16:36:23.323Z,15.19
2019-05-16T16:37:23.307Z,15.01
2019-05-16T16:38:23.308Z,14.95
2019-05-16T16:39:23.292Z,14.95
2019-05-16T16:40:23.275Z,14.95
2019-05-16T16:41:23.268Z,14.94
2019-05-16T16:42:23.257Z,14.91
2019-05-16T16:43:24.305Z,14.93
2019-05-16T16:44:23.228Z,14.80
2019-05-16T16:45:23.223Z,14.75
2019-05-16T16:46:23.222Z,14.83
2019-05-16T16:47:23.196Z,14.75
2019-05-16T16:48:23.192Z,14.71
2019-05-16T16:49:23.179Z,14.72
2019-05-16T16:50:23.162Z,14.69
2019-05-16T16:51:23.152Z,14.65
2019-05-16T16:52:23.159Z,14.74
2019-05-16T16:53:23.142Z,14.68
2019-05-16T16:54:23.130Z,14.74
2019-05-16T16:55:23.117Z,14.64
2019-05-16T16:56:23.098Z,14.67
2019-05-16T16:57:23.089Z,14.68
2019-05-16T16:58:23.099Z,14.60
2019-05-16T16:59:23.066Z,14.71
2019-05-16T17:00:23.065Z,14.71
2019-05-16T17:01:23.039Z,14.62
2019-05-16T17:02:23.032Z,14.65
2019-05-16T17:03:23.031Z,14.68
2019-05-16T17:04:23.005Z,14.74
2019-05-16T17:05:22.995Z,14.71